createdAt,value
2018-10-01T00:00:14.480Z,10.00
2018-10-01T00:02:43.132Z,10.43
2018-10-01T00:05:11.735Z,9.03
2018-10-01T00:07:40.321Z,9.30
2018-10-01T00:10:08.859Z,8.43
2018-10-01T00:12:37.477Z,8.53
2018-10-01T00:15:06.124Z,8.13
2018-10-01T00:17:34.768Z,8.30
2018-10-01T00:20:08.618Z,8.83
2018-10-01T00:22:42.604Z,8.43
2018-10-01T00:25:11.228Z,7.50
2018-10-01T00:27:39.851Z,7.67
2018-10-01T00:30:08.564Z,7.20
2018-10-01T00:32:37.294Z,7.17
2018-10-01T00:35:05.973Z,8.00
2018-10-01T00:37:34.608Z,8.00
2018-10-01T00:40:03.277Z,7.40
2018-10-01T00:42:31.921Z,7.27
2018-10-01T00:45:00.542Z,7.10
2018-10-01T00:47:29.197Z,7.10
2018-10-01T00:49:57.781Z,7.20
2018-10-01T00:52:26.400Z,7.10
2018-10-01T00:54:54.981Z,7.80
2018-10-01T00:57:23.580Z,6.77
2018-10-01T00:59:52.244Z,6.90
2018-10-01T01:02:20.827Z,7.27
2018-10-01T01:04:49.457Z,7.47
2018-10-01T01:07:18.120Z,7.40
2018-10-01T01:09:46.737Z,7.33
2018-10-01T01:12:15.377Z,7.43
2018-10-01T01:14:44.026Z,6.73
2018-10-01T01:17:12.602Z,6.70
2018-10-01T01:19:41.190Z,6.80
2018-10-01T01:22:09.843Z,6.60
2018-10-01T01:24:38.510Z,6.63
2018-10-01T01:27:07.112Z,7.60
2018-10-01T01:29:35.641Z,7.90
2018-10-01T01:32:04.232Z,7.37
2018-10-01T01:34:32.886Z,7.80
2018-10-01T01:37:01.573Z,8.77
2018-10-01T01:39:30.151Z,10.03
2018-10-01T01:41:58.725Z,10.43
2018-10-01T01:44:27.313Z,9.97
2018-10-01T01:46:55.971Z,10.47
2018-10-01T01:49:24.575Z,10.60
2018-10-01T01:51:53.201Z,11.37
2018-10-01T01:54:21.784Z,9.53
2018-10-01T01:56:50.689Z,9.10
2018-10-01T01:59:19.514Z,9.73
2018-10-01T02:01:48.108Z,7.00
2018-10-01T02:04:16.704Z,6.43
2018-10-01T02:06:45.228Z,6.77
2018-10-01T02:09:13.853Z,6.20
2018-10-01T02:11:42.436Z,5.93
2018-10-01T02:14:11.015Z,5.63
2018-10-01T02:16:40.391Z,5.03
2018-10-01T02:19:09.055Z,5.17
2018-10-01T02:21:37.687Z,5.50
2018-10-01T02:24:06.235Z,4.60
2018-10-01T02:26:34.925Z,4.97
2018-10-01T02:29:03.535Z,4.57
2018-10-01T02:31:32.132Z,4.83
2018-10-01T02:34:00.751Z,5.10
2018-10-01T02:36:29.353Z,4.50
2018-10-01T02:38:57.974Z,4.60
2018-10-01T02:41:26.584Z,4.63
2018-10-01T02:43:55.142Z,4.10
2018-10-01T02:46:23.767Z,4.47
2018-10-01T02:48:52.390Z,4.10
2018-10-01T02:51:21.060Z,4.87
2018-10-01T02:53:54.889Z,4.10
2018-10-01T02:56:23.461Z,3.87
2018-10-01T02:58:52.037Z,4.10
2018-10-01T03:01:20.635Z,4.00
2018-10-01T03:03:49.239Z,4.33
2018-10-01T03:06:17.935Z,4.20
2018-10-01T03:08:46.657Z,4.07
2018-10-01T03:11:15.201Z,3.90
2018-10-01T03:13:43.861Z,4.13
2018-10-01T03:16:12.465Z,3.70
2018-10-01T03:18:41.053Z,3.40
2018-10-01T03:21:09.690Z,3.40
2018-10-01T03:23:38.222Z,2.93
2018-10-01T03:26:06.815Z,3.00
2018-10-01T03:28:35.349Z,3.20
2018-10-01T03:31:04.030Z,3.20
2018-10-01T03:33:32.625Z,2.80
2018-10-01T03:36:01.214Z,2.60
2018-10-01T03:38:29.782Z,2.60
2018-10-01T03:40:58.400Z,2.37
2018-10-01T03:43:26.996Z,2.23
2018-10-01T03:45:55.567Z,2.53
2018-10-01T03:48:24.097Z,2.00
2018-10-01T03:50:52.667Z,2.40
2018-10-01T03:53:21.247Z,2.53
2018-10-01T03:55:49.843Z,2.10
2018-10-01T03:58:18.383Z,2.20
2018-10-01T04:00:46.991Z,2.47
2018-10-01T04:03:15.578Z,2.30
2018-10-01T04:05:44.196Z,2.20
2018-10-01T04:08:12.717Z,2.50
2018-10-01T04:10:41.370Z,2.40
2018-10-01T04:13:10.026Z,2.70
2018-10-01T04:15:38.654Z,2.77
2018-10-01T04:18:07.278Z,2.50
2018-10-01T04:20:35.842Z,2.67
2018-10-01T04:23:04.492Z,2.20
2018-10-01T04:25:33.105Z,2.70
2018-10-01T04:28:01.697Z,2.60
2018-10-01T04:30:30.332Z,2.73
2018-10-01T04:32:58.991Z,2.70
2018-10-01T04:35:27.571Z,2.43
2018-10-01T04:37:56.183Z,2.33
2018-10-01T04:40:24.788Z,2.30
2018-10-01T04:42:53.387Z,2.47
2018-10-01T04:45:22.120Z,2.30
2018-10-01T04:47:50.687Z,2.30
2018-10-01T04:50:19.325Z,2.10
2018-10-01T04:52:47.863Z,2.50
2018-10-01T04:55:16.416Z,2.83
2018-10-01T04:57:44.997Z,2.30
2018-10-01T05:00:13.586Z,2.43
2018-10-01T05:02:42.138Z,2.30
2018-10-01T05:05:10.777Z,2.67
2018-10-01T05:07:39.382Z,2.73
2018-10-01T05:10:08.151Z,2.50
2018-10-01T05:12:36.741Z,2.50
2018-10-01T05:15:05.509Z,2.80
2018-10-01T05:17:34.149Z,2.70
2018-10-01T05:20:02.843Z,3.03
2018-10-01T05:22:31.489Z,3.10
2018-10-01T05:25:00.103Z,3.13
2018-10-01T05:27:28.681Z,3.00
2018-10-01T05:29:57.338Z,2.90
2018-10-01T05:32:25.941Z,3.20
2018-10-01T05:34:54.569Z,3.30
2018-10-01T05:37:23.184Z,3.33
2018-10-01T05:39:51.788Z,3.10
2018-10-01T05:42:20.419Z,3.30
2018-10-01T05:44:48.998Z,3.60
2018-10-01T05:47:17.562Z,3.30
2018-10-01T05:49:46.159Z,3.37
2018-10-01T05:52:14.850Z,3.27
2018-10-01T05:54:43.451Z,3.73
2018-10-01T05:57:12.060Z,3.13
2018-10-01T05:59:40.619Z,3.50
2018-10-01T06:02:09.253Z,3.17
2018-10-01T06:04:37.960Z,3.47
2018-10-01T06:07:06.995Z,3.50
2018-10-01T06:09:35.609Z,3.30
2018-10-01T06:12:04.321Z,4.07
2018-10-01T06:14:32.963Z,3.73
2018-10-01T06:17:01.644Z,3.70
2018-10-01T06:19:30.428Z,3.83
2018-10-01T06:21:59.038Z,3.43
2018-10-01T06:24:27.744Z,4.13
2018-10-01T06:26:56.324Z,3.90
2018-10-01T06:29:24.930Z,4.13
2018-10-01T06:31:53.491Z,3.50
2018-10-01T06:34:22.106Z,3.77
2018-10-01T06:36:50.708Z,3.47
2018-10-01T06:39:19.314Z,3.20
2018-10-01T06:41:47.821Z,3.33
2018-10-01T06:44:16.391Z,3.30
2018-10-01T06:46:44.959Z,3.50
2018-10-01T06:49:13.577Z,3.97
2018-10-01T06:51:42.286Z,3.20
2018-10-01T06:54:10.811Z,3.50
2018-10-01T06:56:39.521Z,3.20
2018-10-01T06:59:08.152Z,3.27
2018-10-01T07:01:36.718Z,3.10
2018-10-01T07:04:05.390Z,3.43
2018-10-01T07:06:33.951Z,3.30
2018-10-01T07:09:02.611Z,2.70
2018-10-01T07:11:31.334Z,3.10
2018-10-01T07:13:59.864Z,2.73
2018-10-01T07:16:28.497Z,3.00
2018-10-01T07:18:57.561Z,3.03
2018-10-01T07:21:26.148Z,2.90
2018-10-01T07:23:54.786Z,2.70
2018-10-01T07:26:23.434Z,2.50
2018-10-01T07:28:52.056Z,3.03
2018-10-01T07:31:20.802Z,2.60
2018-10-01T07:33:49.318Z,2.67
2018-10-01T07:36:17.870Z,2.50
2018-10-01T07:38:46.432Z,2.47
2018-10-01T07:41:15.041Z,2.67
2018-10-01T07:43:43.651Z,2.27
2018-10-01T07:46:12.390Z,2.40
2018-10-01T07:48:41.177Z,2.20
2018-10-01T07:51:10.777Z,2.40
2018-10-01T07:53:39.157Z,2.23
2018-10-01T07:56:08.000Z,2.47
2018-10-01T07:58:36.542Z,2.13
2018-10-01T08:01:05.170Z,2.50
2018-10-01T08:03:33.807Z,2.90
2018-10-01T08:06:02.378Z,2.50
2018-10-01T08:08:31.076Z,2.50
2018-10-01T08:10:59.684Z,2.53
2018-10-01T08:13:28.410Z,2.47
2018-10-01T08:15:57.189Z,2.30
2018-10-01T08:18:25.795Z,2.17
2018-10-01T08:20:54.456Z,1.97
2018-10-01T08:23:23.203Z,2.07
2018-10-01T08:25:51.786Z,2.20
2018-10-01T08:28:20.353Z,2.10
2018-10-01T08:30:49.107Z,2.17
2018-10-01T08:33:17.668Z,1.93
2018-10-01T08:35:46.356Z,2.03
2018-10-01T08:38:15.106Z,1.87
2018-10-01T08:40:43.627Z,1.63
2018-10-01T08:43:12.312Z,1.57
2018-10-01T08:45:40.940Z,1.80
2018-10-01T08:48:10.140Z,2.07
2018-10-01T08:50:44.636Z,1.60
2018-10-01T08:54:20.182Z,1.50
2018-10-01T08:56:48.965Z,1.87
2018-10-01T08:59:17.880Z,2.00
2018-10-01T09:01:46.559Z,1.40
2018-10-01T09:04:15.183Z,1.70
2018-10-01T09:06:43.807Z,1.60
2018-10-01T09:09:12.841Z,1.40
2018-10-01T09:11:41.495Z,1.67
2018-10-01T09:14:10.421Z,1.50
2018-10-01T09:16:39.010Z,1.37
2018-10-01T09:19:07.883Z,1.67
2018-10-01T09:21:36.560Z,1.23
2018-10-01T09:24:05.305Z,1.70
2018-10-01T09:26:34.038Z,1.50
2018-10-01T09:29:02.706Z,1.73
2018-10-01T09:31:31.298Z,1.60
2018-10-01T09:33:59.997Z,1.80
2018-10-01T09:36:28.605Z,1.47
2018-10-01T09:38:57.192Z,1.50
2018-10-01T09:41:25.808Z,1.73
2018-10-01T09:43:54.429Z,2.23
2018-10-01T09:46:23.974Z,2.30
2018-10-01T09:48:52.705Z,1.83
2018-10-01T09:51:21.448Z,1.70
2018-10-01T09:53:50.166Z,1.80
2018-10-01T09:56:18.899Z,2.00
2018-10-01T09:58:47.609Z,1.87
2018-10-01T10:01:16.883Z,1.40
2018-10-01T10:03:45.530Z,2.20
2018-10-01T10:06:14.118Z,2.23
2018-10-01T10:08:42.854Z,1.60
2018-10-01T10:11:11.418Z,1.80
2018-10-01T10:13:40.014Z,2.40
2018-10-01T10:16:08.761Z,1.90
2018-10-01T10:18:37.312Z,2.00
2018-10-01T10:21:06.028Z,1.80
2018-10-01T10:23:34.661Z,1.50
2018-10-01T10:26:03.441Z,2.07
2018-10-01T10:28:32.368Z,2.10
2018-10-01T10:31:00.906Z,1.90
2018-10-01T10:33:29.537Z,2.07
2018-10-01T10:35:58.215Z,2.07
2018-10-01T10:38:26.851Z,2.37
2018-10-01T10:40:55.485Z,1.90
2018-10-01T10:43:24.168Z,2.33
2018-10-01T10:45:52.718Z,1.87
2018-10-01T10:48:21.334Z,2.00
2018-10-01T10:50:49.972Z,2.13
2018-10-01T10:53:19.387Z,2.20
2018-10-01T10:55:48.020Z,2.97
2018-10-01T10:58:16.634Z,2.47
2018-10-01T11:00:45.506Z,2.67
2018-10-01T11:03:14.180Z,2.33
2018-10-01T11:05:42.808Z,2.30
2018-10-01T11:08:11.602Z,2.53
2018-10-01T11:10:40.248Z,2.13
2018-10-01T11:13:09.119Z,2.00
2018-10-01T11:15:38.711Z,1.97
2018-10-01T11:18:07.435Z,2.27
2018-10-01T11:20:36.081Z,1.87
2018-10-01T11:23:04.773Z,2.30
2018-10-01T11:25:33.579Z,1.83
2018-10-01T11:28:02.240Z,2.23
2018-10-01T11:30:30.803Z,1.77
2018-10-01T11:32:59.556Z,2.13
2018-10-01T11:35:28.253Z,2.27
2018-10-01T11:37:56.845Z,2.00
2018-10-01T11:40:25.526Z,2.00
2018-10-01T11:42:54.131Z,2.00
2018-10-01T11:45:22.870Z,2.30
2018-10-01T11:47:51.593Z,3.90
2018-10-01T11:50:20.261Z,2.70
2018-10-01T11:52:48.828Z,2.43
2018-10-01T11:55:17.538Z,3.13
2018-10-01T11:57:46.255Z,2.80
2018-10-01T12:00:16.769Z,2.70
2018-10-01T12:02:45.664Z,3.10
2018-10-01T12:05:14.307Z,2.40
2018-10-01T12:07:42.905Z,2.53
2018-10-01T12:10:11.557Z,2.47
2018-10-01T12:12:40.128Z,3.20
2018-10-01T12:15:08.838Z,3.47
2018-10-01T12:17:37.695Z,2.40
2018-10-01T12:20:06.658Z,2.50
2018-10-01T12:22:35.375Z,2.60
2018-10-01T12:25:03.962Z,2.83
2018-10-01T12:27:32.660Z,2.80
2018-10-01T12:30:01.415Z,2.77
2018-10-01T12:32:30.969Z,2.33
2018-10-01T12:34:59.714Z,2.33
2018-10-01T12:37:28.264Z,2.53
2018-10-01T12:39:56.928Z,2.90
2018-10-01T12:42:25.596Z,2.73
2018-10-01T12:44:54.280Z,2.50
2018-10-01T12:47:23.941Z,2.63
2018-10-01T12:49:52.549Z,1.90
2018-10-01T12:52:21.233Z,2.20
2018-10-01T12:54:50.094Z,2.20
2018-10-01T12:57:19.091Z,1.70
2018-10-01T12:59:47.871Z,2.00
2018-10-01T13:02:21.049Z,1.53
2018-10-01T13:04:49.753Z,1.40
2018-10-01T13:07:18.460Z,1.57
2018-10-01T13:09:47.197Z,1.37
2018-10-01T13:12:16.040Z,1.60
2018-10-01T13:14:44.797Z,1.37
2018-10-01T13:17:13.731Z,1.30
2018-10-01T13:19:42.432Z,1.90
2018-10-01T13:22:12.371Z,1.17
2018-10-01T13:24:41.072Z,1.50
2018-10-01T13:27:09.779Z,1.60
2018-10-01T13:29:39.578Z,1.50
2018-10-01T13:32:08.449Z,1.50
2018-10-01T13:34:37.318Z,1.27
2018-10-01T13:37:07.346Z,1.30
2018-10-01T13:39:36.441Z,1.77
2018-10-01T13:42:05.612Z,1.30
2018-10-01T13:44:37.663Z,1.53
2018-10-01T13:47:06.408Z,1.40
2018-10-01T13:49:35.374Z,1.33
2018-10-01T13:52:04.130Z,1.50
2018-10-01T13:54:32.785Z,1.37
2018-10-01T13:57:01.584Z,1.10
2018-10-01T13:59:30.337Z,1.20
2018-10-01T14:02:00.189Z,1.30
2018-10-01T14:04:29.199Z,2.00
2018-10-01T14:06:58.041Z,2.20
2018-10-01T14:09:26.786Z,2.40
2018-10-01T14:11:55.460Z,2.00
2018-10-01T14:14:24.421Z,3.27
2018-10-01T14:16:53.336Z,2.33
2018-10-01T14:19:22.528Z,1.60
2018-10-01T14:21:51.309Z,1.40
2018-10-01T14:24:20.133Z,2.37
2018-10-01T14:26:48.927Z,2.40
2018-10-01T14:29:17.831Z,1.33
2018-10-01T14:31:46.499Z,1.93
2018-10-01T14:34:16.326Z,1.93
2018-10-01T14:36:45.115Z,2.00
2018-10-01T14:39:13.758Z,1.40
2018-10-01T14:41:42.514Z,1.93
2018-10-01T14:44:11.263Z,1.70
2018-10-01T14:46:41.092Z,1.70
2018-10-01T14:49:09.889Z,2.33
2018-10-01T14:51:39.156Z,1.80
2018-10-01T14:54:07.879Z,1.87
2018-10-01T14:56:36.546Z,2.80
2018-10-01T14:59:05.327Z,1.80
2018-10-01T15:01:33.971Z,1.80
2018-10-01T15:04:02.685Z,1.90
2018-10-01T15:06:32.121Z,2.27
2018-10-01T15:09:00.798Z,2.00
2018-10-01T15:11:29.509Z,2.00
2018-10-01T15:13:58.492Z,1.80
2018-10-01T15:16:27.202Z,1.80
2018-10-01T15:18:55.894Z,3.27
2018-10-01T15:21:24.596Z,1.93
2018-10-01T15:23:54.540Z,2.23
2018-10-01T15:26:23.305Z,1.70
2018-10-01T15:28:52.048Z,2.57
2018-10-01T15:31:21.702Z,2.37
2018-10-01T15:33:50.494Z,2.57
2018-10-01T15:36:20.205Z,1.90
2018-10-01T15:38:49.300Z,2.37
2018-10-01T15:41:18.018Z,1.80
2018-10-01T15:43:46.847Z,2.83
2018-10-01T15:46:15.489Z,5.17
2018-10-01T15:48:44.144Z,2.10
2018-10-01T15:51:12.911Z,2.10
2018-10-01T15:53:41.586Z,1.80
2018-10-01T15:56:10.247Z,1.93
2018-10-01T15:58:38.981Z,1.83
2018-10-01T16:01:07.687Z,2.20
2018-10-01T16:03:36.501Z,2.33
2018-10-01T16:06:05.320Z,2.03
2018-10-01T16:08:33.968Z,2.37
2018-10-01T16:11:02.738Z,2.63
2018-10-01T16:13:31.461Z,1.87
2018-10-01T16:16:00.157Z,2.10
2018-10-01T16:18:28.758Z,2.10
2018-10-01T16:20:57.374Z,1.83
2018-10-01T16:23:25.968Z,2.00
2018-10-01T16:25:54.593Z,2.47
2018-10-01T16:28:23.270Z,3.60
2018-10-01T16:30:51.890Z,5.57
2018-10-01T16:33:20.520Z,3.80
2018-10-01T16:35:49.180Z,2.87
2018-10-01T16:38:17.797Z,2.57
2018-10-01T16:40:46.521Z,2.50
2018-10-01T16:43:15.139Z,2.27
2018-10-01T16:45:43.823Z,2.33
2018-10-01T16:48:12.495Z,2.43
2018-10-01T16:50:41.163Z,2.07
2018-10-01T16:53:09.819Z,2.40
2018-10-01T16:55:38.514Z,2.77
2018-10-01T16:58:07.314Z,2.60
2018-10-01T17:00:36.054Z,2.13
2018-10-01T17:03:04.654Z,2.43
2018-10-01T17:05:33.480Z,2.43
2018-10-01T17:08:02.128Z,2.07
2018-10-01T17:10:30.778Z,2.40
2018-10-01T17:13:00.134Z,2.10
2018-10-01T17:15:28.810Z,2.07
2018-10-01T17:17:57.506Z,1.90
2018-10-01T17:20:26.117Z,2.30
2018-10-01T17:22:54.834Z,2.10
2018-10-01T17:25:23.519Z,1.90
2018-10-01T17:27:52.187Z,2.40
2018-10-01T17:30:20.958Z,2.40
2018-10-01T17:32:49.597Z,3.30
2018-10-01T17:35:18.725Z,2.77
2018-10-01T17:37:47.365Z,16.00
2018-10-01T17:40:16.024Z,14.17
2018-10-01T17:42:44.708Z,8.97
2018-10-01T17:45:13.346Z,4.10
2018-10-01T17:47:42.018Z,2.97
2018-10-01T17:50:10.751Z,3.03
2018-10-01T17:52:39.420Z,3.87
2018-10-01T17:55:08.091Z,3.77
2018-10-01T17:57:36.808Z,2.90
2018-10-01T18:00:06.569Z,7.23
2018-10-01T18:02:35.221Z,2.40
2018-10-01T18:05:04.035Z,2.50
2018-10-01T18:07:32.741Z,2.23
2018-10-01T18:10:01.437Z,2.07
2018-10-01T18:12:30.064Z,2.73
2018-10-01T18:14:58.768Z,2.47
2018-10-01T18:17:27.427Z,11.80
2018-10-01T18:19:56.145Z,4.27
2018-10-01T18:22:25.044Z,6.00
2018-10-01T18:24:54.085Z,37.50
2018-10-01T18:27:22.826Z,9.30
2018-10-01T18:29:51.543Z,3.33
2018-10-01T18:32:20.390Z,8.50
2018-10-01T18:34:49.033Z,11.90
2018-10-01T18:37:17.840Z,5.07
2018-10-01T18:39:46.462Z,11.50
2018-10-01T18:42:15.150Z,12.87
2018-10-01T18:44:43.811Z,11.20
2018-10-01T18:47:12.997Z,4.03
2018-10-01T18:49:41.677Z,19.23
2018-10-01T18:52:10.403Z,11.33
2018-10-01T18:54:39.041Z,10.27
2018-10-01T18:57:07.711Z,6.17
2018-10-01T18:59:37.037Z,5.93
2018-10-01T19:02:05.716Z,4.63
2018-10-01T19:04:34.453Z,4.50
2018-10-01T19:07:03.167Z,3.73
2018-10-01T19:09:31.773Z,4.40
2018-10-01T19:12:00.447Z,9.33
2018-10-01T19:14:29.115Z,4.33
2018-10-01T19:16:57.829Z,5.70
2018-10-01T19:19:26.477Z,5.60
2018-10-01T19:21:55.222Z,7.73
2018-10-01T19:24:24.013Z,16.90
2018-10-01T19:26:52.841Z,9.20
2018-10-01T19:29:21.458Z,4.90
2018-10-01T19:31:50.162Z,11.73
2018-10-01T19:34:18.899Z,3.57
2018-10-01T19:36:47.764Z,8.07
2018-10-01T19:39:16.548Z,5.03
2018-10-01T19:41:45.211Z,2.40
2018-10-01T19:44:13.937Z,5.03
2018-10-01T19:46:42.628Z,2.60
2018-10-01T19:49:11.294Z,3.20
2018-10-01T19:51:39.988Z,3.63
2018-10-01T19:54:08.587Z,15.03
2018-10-01T19:56:37.260Z,6.27
2018-10-01T19:59:05.929Z,10.97
2018-10-01T20:01:34.602Z,8.50
2018-10-01T20:04:03.237Z,10.57
2018-10-01T20:06:31.962Z,14.00
2018-10-01T20:09:00.586Z,22.50
2018-10-01T20:11:29.236Z,13.40
2018-10-01T20:13:57.826Z,9.97
2018-10-01T20:16:26.487Z,7.00
2018-10-01T20:18:55.175Z,3.60
2018-10-01T20:21:23.840Z,5.37
2018-10-01T20:23:52.450Z,6.07
2018-10-01T20:26:21.138Z,11.93
2018-10-01T20:28:50.055Z,27.43
2018-10-01T20:31:18.480Z,22.50
2018-10-01T20:33:47.273Z,6.63
2018-10-01T20:36:16.035Z,4.97
2018-10-01T20:38:44.624Z,3.10
2018-10-01T20:41:13.209Z,3.57
2018-10-01T20:43:41.870Z,2.90
2018-10-01T20:46:10.509Z,3.10
2018-10-01T20:48:39.131Z,2.53
2018-10-01T20:51:07.875Z,3.33
2018-10-01T20:53:36.536Z,3.03
2018-10-01T20:56:05.185Z,2.90
2018-10-01T20:58:33.808Z,3.20
2018-10-01T21:01:02.482Z,3.47
2018-10-01T21:03:31.129Z,2.83
2018-10-01T21:05:59.834Z,3.13
2018-10-01T21:08:28.445Z,4.33
2018-10-01T21:10:57.094Z,2.73
2018-10-01T21:13:25.731Z,2.50
2018-10-01T21:15:54.373Z,2.60
2018-10-01T21:18:23.049Z,2.70
2018-10-01T21:20:51.663Z,2.73
2018-10-01T21:23:20.319Z,2.23
2018-10-01T21:25:48.957Z,2.17
2018-10-01T21:28:17.635Z,3.13
2018-10-01T21:30:46.305Z,2.70
2018-10-01T21:33:14.982Z,2.70
2018-10-01T21:35:44.084Z,2.70
2018-10-01T21:38:12.730Z,2.43
2018-10-01T21:40:41.382Z,2.63
2018-10-01T21:43:09.968Z,2.37
2018-10-01T21:45:38.558Z,2.30
2018-10-01T21:48:07.169Z,2.20
2018-10-01T21:50:35.724Z,2.30
2018-10-01T21:53:04.405Z,2.53
2018-10-01T21:55:33.024Z,2.00
2018-10-01T21:58:01.556Z,2.00
2018-10-01T22:01:35.173Z,2.23
2018-10-01T22:04:03.822Z,2.50
2018-10-01T22:06:32.406Z,2.30
2018-10-01T22:09:01.029Z,2.63
2018-10-01T22:11:29.655Z,3.30
2018-10-01T22:13:58.204Z,1.70
2018-10-01T22:16:26.841Z,2.20
2018-10-01T22:18:55.466Z,2.30
2018-10-01T22:21:24.071Z,2.30
2018-10-01T22:23:52.658Z,2.13
2018-10-01T22:26:21.188Z,2.83
2018-10-01T22:28:49.802Z,2.70
2018-10-01T22:31:18.390Z,3.13
2018-10-01T22:33:47.020Z,3.43
2018-10-01T22:36:15.639Z,3.40
2018-10-01T22:38:44.370Z,2.80
2018-10-01T22:41:13.039Z,2.43
2018-10-01T22:43:41.748Z,2.33
2018-10-01T22:46:10.306Z,2.47
2018-10-01T22:48:38.883Z,2.27
2018-10-01T22:51:07.544Z,2.53
2018-10-01T22:53:36.134Z,2.70
2018-10-01T22:56:04.871Z,2.30
2018-10-01T22:58:33.463Z,3.00
2018-10-01T23:01:02.097Z,2.93
2018-10-01T23:03:30.645Z,2.20
2018-10-01T23:05:59.255Z,3.00
2018-10-01T23:08:27.821Z,2.30
2018-10-01T23:10:56.359Z,2.70
2018-10-01T23:13:24.989Z,2.50
2018-10-01T23:15:53.628Z,2.77
2018-10-01T23:18:22.209Z,2.00
2018-10-01T23:20:50.884Z,2.77
2018-10-01T23:23:19.541Z,2.30
2018-10-01T23:25:48.177Z,2.80
2018-10-01T23:28:16.746Z,2.70
2018-10-01T23:30:45.306Z,2.73
2018-10-01T23:33:13.956Z,2.77
2018-10-01T23:35:42.501Z,2.70
2018-10-01T23:38:11.182Z,2.50
2018-10-01T23:40:39.745Z,2.40
2018-10-01T23:43:08.425Z,2.50
2018-10-01T23:45:37.001Z,2.80
2018-10-01T23:48:05.698Z,2.43
2018-10-01T23:50:34.275Z,2.83
2018-10-01T23:53:03.011Z,2.80
2018-10-01T23:55:31.757Z,2.70
2018-10-01T23:58:00.341Z,2.73
